createdAt,value
2018-08-18T00:00:23.766Z,56.30
2018-08-18T00:02:52.922Z,56.19
2018-08-18T00:05:22.051Z,56.55
2018-08-18T00:07:51.264Z,56.73
2018-08-18T00:10:22.833Z,56.91
2018-08-18T00:12:52.290Z,57.14
2018-08-18T00:15:21.403Z,57.01
2018-08-18T00:17:50.539Z,57.36
2018-08-18T00:20:24.718Z,57.67
2018-08-18T00:22:53.850Z,57.05
2018-08-18T00:25:22.949Z,57.38
2018-08-18T00:27:52.107Z,56.90
2018-08-18T00:30:27.657Z,57.06
2018-08-18T00:32:56.855Z,57.51
2018-08-18T00:35:25.939Z,57.56
2018-08-18T00:37:55.032Z,57.55
2018-08-18T00:40:24.209Z,57.26
2018-08-18T00:42:53.389Z,57.36
2018-08-18T00:45:22.474Z,57.31
2018-08-18T00:47:52.257Z,57.19
2018-08-18T00:50:37.833Z,57.27
2018-08-18T00:53:08.886Z,57.52
2018-08-18T00:55:38.348Z,57.15
2018-08-18T00:58:16.467Z,57.24
2018-08-18T01:00:49.675Z,57.42
2018-08-18T01:03:18.792Z,57.05
2018-08-18T01:05:47.949Z,56.78
2018-08-18T01:08:17.068Z,57.47
2018-08-18T01:10:46.263Z,57.09
2018-08-18T01:13:15.480Z,57.15
2018-08-18T01:15:44.709Z,58.20
2018-08-18T01:18:13.745Z,59.56
2018-08-18T01:20:42.865Z,61.02
2018-08-18T01:23:12.031Z,62.06
2018-08-18T01:25:41.183Z,64.22
2018-08-18T01:28:10.353Z,65.26
2018-08-18T01:30:39.506Z,66.03
2018-08-18T01:33:08.689Z,66.34
2018-08-18T01:35:37.867Z,66.41
2018-08-18T01:38:07.079Z,66.20
2018-08-18T01:40:36.209Z,66.44
2018-08-18T01:43:05.380Z,66.61
2018-08-18T01:45:34.525Z,66.88
2018-08-18T01:48:03.640Z,66.68
2018-08-18T01:50:32.778Z,67.03
2018-08-18T01:53:01.933Z,67.44
2018-08-18T01:55:31.024Z,66.82
2018-08-18T01:58:00.158Z,66.80
2018-08-18T02:00:29.299Z,67.03
2018-08-18T02:02:58.454Z,66.96
2018-08-18T02:05:27.612Z,67.26
2018-08-18T02:07:56.819Z,67.22
2018-08-18T02:10:26.017Z,67.85
2018-08-18T02:13:03.894Z,68.28
2018-08-18T02:15:33.182Z,67.48
2018-08-18T02:18:02.320Z,67.91
2018-08-18T02:20:31.441Z,68.37
2018-08-18T02:23:00.594Z,68.40
2018-08-18T02:25:29.805Z,68.21
2018-08-18T02:27:58.918Z,68.60
2018-08-18T02:30:28.074Z,68.75
2018-08-18T02:32:57.261Z,68.54
2018-08-18T02:35:26.422Z,68.59
2018-08-18T02:37:56.580Z,68.91
2018-08-18T02:40:25.803Z,69.01
2018-08-18T02:42:55.036Z,68.72
2018-08-18T02:45:24.215Z,68.51
2018-08-18T02:48:13.153Z,68.62
2018-08-18T02:50:48.579Z,68.29
2018-08-18T02:53:28.062Z,68.35
2018-08-18T02:55:57.523Z,68.81
2018-08-18T02:58:26.663Z,68.70
2018-08-18T03:00:55.851Z,68.72
2018-08-18T03:03:24.993Z,68.35
2018-08-18T03:05:56.568Z,67.95
2018-08-18T03:08:25.757Z,68.73
2018-08-18T03:10:54.866Z,68.21
2018-08-18T03:13:27.107Z,67.93
2018-08-18T03:15:57.611Z,66.89
2018-08-18T03:18:51.529Z,67.28
2018-08-18T03:21:26.483Z,66.69
2018-08-18T03:24:29.562Z,66.43
2018-08-18T03:26:59.124Z,66.49
2018-08-18T03:29:29.535Z,66.58
2018-08-18T03:31:58.771Z,66.82
2018-08-18T03:34:27.947Z,66.78
2018-08-18T03:36:57.183Z,67.73
2018-08-18T03:39:31.732Z,68.24
2018-08-18T03:42:02.232Z,68.31
2018-08-18T03:44:31.375Z,68.18
2018-08-18T03:47:00.569Z,68.03
2018-08-18T03:49:29.785Z,67.24
2018-08-18T03:51:58.998Z,67.63
2018-08-18T03:54:28.190Z,67.31
2018-08-18T03:56:57.384Z,67.31
2018-08-18T03:59:26.552Z,67.63
2018-08-18T04:01:57.833Z,67.71
2018-08-18T04:04:28.231Z,67.00
2018-08-18T04:06:59.198Z,66.82
2018-08-18T04:09:29.530Z,66.96
2018-08-18T04:11:59.428Z,66.65
2018-08-18T04:14:30.641Z,66.79
2018-08-18T04:16:59.812Z,67.49
2018-08-18T04:19:28.890Z,68.09
2018-08-18T04:21:58.172Z,68.45
2018-08-18T04:24:36.419Z,68.03
2018-08-18T04:27:05.522Z,68.11
2018-08-18T04:29:34.675Z,67.66
2018-08-18T04:32:04.102Z,67.76
2018-08-18T04:34:33.283Z,67.72
2018-08-18T04:37:02.449Z,66.98
2018-08-18T04:39:31.569Z,67.00
2018-08-18T04:42:00.762Z,67.33
2018-08-18T04:44:29.901Z,66.77
2018-08-18T04:46:59.087Z,66.26
2018-08-18T04:49:28.231Z,66.16
2018-08-18T04:51:57.385Z,64.84
2018-08-18T04:54:26.487Z,63.83
2018-08-18T04:56:55.594Z,63.32
2018-08-18T04:59:24.664Z,62.85
2018-08-18T05:01:53.940Z,62.87
2018-08-18T05:04:23.082Z,63.67
2018-08-18T05:06:52.206Z,63.80
2018-08-18T05:09:21.341Z,64.42
2018-08-18T05:11:50.474Z,64.19
2018-08-18T05:14:19.605Z,63.30
2018-08-18T05:16:48.756Z,63.35
2018-08-18T05:19:18.043Z,63.40
2018-08-18T05:21:48.690Z,63.60
2018-08-18T05:24:25.418Z,64.25
2018-08-18T05:26:55.566Z,64.27
2018-08-18T05:29:24.648Z,63.72
2018-08-18T05:31:53.744Z,63.72
2018-08-18T05:34:22.851Z,63.77
2018-08-18T05:36:51.987Z,63.58
2018-08-18T05:39:21.130Z,63.66
2018-08-18T05:41:50.264Z,63.11
2018-08-18T05:44:19.366Z,62.94
2018-08-18T05:46:48.546Z,63.09
2018-08-18T05:49:17.733Z,62.28
2018-08-18T05:51:49.396Z,62.19
2018-08-18T05:54:22.938Z,61.77
2018-08-18T05:56:52.057Z,61.39
2018-08-18T05:59:21.178Z,61.48
2018-08-18T06:01:50.310Z,59.90
2018-08-18T06:04:20.684Z,58.83
2018-08-18T06:06:50.593Z,58.27
2018-08-18T06:09:20.825Z,57.67
2018-08-18T06:11:50.046Z,55.93
2018-08-18T06:14:19.555Z,55.23
2018-08-18T06:16:48.708Z,56.30
2018-08-18T06:19:17.905Z,55.85
2018-08-18T06:21:47.075Z,56.91
2018-08-18T06:24:16.178Z,56.32
2018-08-18T06:26:45.366Z,55.94
2018-08-18T06:29:15.789Z,56.73
2018-08-18T06:32:01.388Z,57.47
2018-08-18T06:34:32.130Z,57.18
2018-08-18T06:37:02.018Z,57.39
2018-08-18T06:40:02.197Z,57.64
2018-08-18T06:42:38.318Z,57.06
2018-08-18T06:45:11.525Z,55.75
2018-08-18T06:47:40.877Z,54.06
2018-08-18T06:50:13.041Z,54.07
2018-08-18T06:52:42.491Z,54.89
2018-08-18T06:55:18.137Z,55.61
2018-08-18T06:57:50.185Z,54.67
2018-08-18T07:00:23.806Z,54.00
2018-08-18T07:02:52.950Z,53.42
2018-08-18T07:05:22.059Z,53.61
2018-08-18T07:07:51.268Z,53.00
2018-08-18T07:10:36.273Z,50.89
2018-08-18T07:13:10.019Z,50.58
2018-08-18T07:15:41.437Z,49.12
2018-08-18T07:18:11.699Z,50.32
2018-08-18T07:20:41.061Z,50.12
2018-08-18T07:23:10.223Z,50.33
2018-08-18T07:25:46.318Z,50.61
2018-08-18T07:28:15.401Z,50.21
2018-08-18T07:30:44.521Z,49.79
2018-08-18T07:33:13.651Z,48.64
2018-08-18T07:35:42.792Z,46.63
2018-08-18T07:38:11.879Z,46.72
2018-08-18T07:40:43.137Z,47.66
2018-08-18T07:43:30.783Z,46.89
2018-08-18T07:46:01.449Z,48.07
2018-08-18T07:48:30.679Z,47.50
2018-08-18T07:50:59.755Z,47.85
2018-08-18T07:53:29.095Z,47.22
2018-08-18T07:55:58.184Z,47.24
2018-08-18T07:58:27.299Z,47.47
2018-08-18T08:00:58.727Z,46.86
2018-08-18T08:03:27.833Z,47.13
2018-08-18T08:05:56.969Z,46.61
2018-08-18T08:08:33.368Z,46.53
2018-08-18T08:11:08.047Z,45.04
2018-08-18T08:13:37.711Z,44.92
2018-08-18T08:16:06.863Z,43.68
2018-08-18T08:18:35.963Z,43.51
2018-08-18T08:21:05.111Z,42.46
2018-08-18T08:23:34.202Z,43.39
2018-08-18T08:26:03.326Z,44.40
2018-08-18T08:28:32.417Z,44.87
2018-08-18T08:31:01.550Z,44.17
2018-08-18T08:33:39.351Z,44.72
2018-08-18T08:36:13.086Z,45.03
2018-08-18T08:38:57.383Z,44.74
2018-08-18T08:41:29.758Z,44.19
2018-08-18T08:43:58.838Z,44.55
2018-08-18T08:46:27.947Z,43.65
2018-08-18T08:49:02.814Z,42.07
2018-08-18T08:51:31.960Z,41.82
2018-08-18T08:54:01.384Z,41.20
2018-08-18T08:56:44.952Z,39.86
2018-08-18T08:59:14.361Z,39.50
2018-08-18T09:01:43.597Z,40.26
2018-08-18T09:04:12.686Z,40.07
2018-08-18T09:06:45.702Z,39.63
2018-08-18T09:09:15.909Z,39.19
2018-08-18T09:11:45.100Z,38.64
2018-08-18T09:14:14.191Z,38.89
2018-08-18T09:16:43.367Z,39.33
2018-08-18T09:19:12.725Z,39.28
2018-08-18T09:21:49.771Z,39.15
2018-08-18T09:24:19.188Z,40.13
2018-08-18T09:26:52.217Z,39.15
2018-08-18T09:29:21.735Z,40.26
2018-08-18T09:31:50.871Z,40.59
2018-08-18T09:34:19.982Z,40.21
2018-08-18T09:36:49.346Z,40.50
2018-08-18T09:39:25.571Z,39.96
2018-08-18T09:41:54.686Z,40.34
2018-08-18T09:44:31.170Z,39.28
2018-08-18T09:47:00.305Z,37.69
2018-08-18T09:49:30.605Z,36.97
2018-08-18T09:52:00.528Z,37.15
2018-08-18T09:54:29.905Z,37.05
2018-08-18T09:56:59.711Z,35.68
2018-08-18T09:59:29.452Z,34.17
2018-08-18T10:01:58.578Z,32.24
2018-08-18T10:04:27.722Z,28.57
2018-08-18T10:06:56.923Z,27.89
2018-08-18T10:09:26.042Z,29.84
2018-08-18T10:11:55.216Z,30.09
2018-08-18T10:14:24.343Z,27.84
2018-08-18T10:16:53.461Z,26.29
2018-08-18T10:19:22.561Z,25.37
2018-08-18T10:21:51.658Z,25.82
2018-08-18T10:24:20.796Z,27.85
2018-08-18T10:27:04.702Z,27.72
2018-08-18T10:29:33.835Z,25.91
2018-08-18T10:32:02.971Z,25.78
2018-08-18T10:34:33.399Z,27.60
2018-08-18T10:37:04.928Z,27.17
2018-08-18T10:39:34.721Z,25.40
2018-08-18T10:42:17.414Z,24.87
2018-08-18T10:44:52.668Z,24.52
2018-08-18T10:47:23.862Z,26.30
2018-08-18T10:50:10.345Z,26.49
2018-08-18T10:53:03.035Z,25.72
2018-08-18T10:55:32.862Z,25.86
2018-08-18T10:58:04.755Z,26.81
2018-08-18T11:00:34.610Z,26.80
2018-08-18T11:03:05.105Z,26.76
2018-08-18T11:05:34.227Z,26.14
2018-08-18T11:08:10.050Z,26.69
2018-08-18T11:10:41.590Z,27.06
2018-08-18T11:13:10.742Z,27.79
2018-08-18T11:15:39.863Z,26.91
2018-08-18T11:18:08.996Z,27.83
2018-08-18T11:20:38.099Z,29.09
2018-08-18T11:23:13.011Z,31.22
2018-08-18T11:25:48.646Z,31.86
2018-08-18T11:28:18.216Z,32.97
2018-08-18T11:30:50.205Z,34.26
2018-08-18T11:33:40.679Z,33.75
2018-08-18T11:36:10.774Z,33.92
2018-08-18T11:38:39.931Z,34.16
2018-08-18T11:41:09.159Z,33.34
2018-08-18T11:43:50.760Z,31.85
2018-08-18T11:46:19.896Z,32.45
2018-08-18T11:48:49.035Z,31.68
2018-08-18T11:51:18.129Z,33.13
2018-08-18T11:53:59.371Z,33.64
2018-08-18T11:56:28.508Z,32.71
2018-08-18T11:59:09.634Z,33.33
2018-08-18T12:01:40.014Z,34.16
2018-08-18T12:04:09.158Z,33.55
2018-08-18T12:06:45.723Z,33.30
2018-08-18T12:09:14.880Z,33.04
2018-08-18T12:11:43.971Z,33.99
2018-08-18T12:14:13.110Z,32.14
2018-08-18T12:16:42.201Z,32.17
2018-08-18T12:19:11.340Z,31.63
2018-08-18T12:21:45.613Z,32.04
2018-08-18T12:24:22.090Z,33.27
2018-08-18T12:27:11.133Z,33.04
2018-08-18T12:29:40.528Z,32.51
2018-08-18T12:32:14.466Z,32.50
2018-08-18T12:34:43.597Z,33.50
2018-08-18T12:37:14.499Z,33.68
2018-08-18T12:39:43.536Z,34.25
2018-08-18T12:42:16.733Z,35.23
2018-08-18T12:44:46.523Z,34.81
2018-08-18T12:47:15.629Z,34.44
2018-08-18T12:49:45.244Z,32.62
2018-08-18T12:52:14.377Z,31.88
2018-08-18T12:54:43.465Z,31.43
2018-08-18T12:57:12.590Z,30.57
2018-08-18T12:59:41.666Z,31.50
2018-08-18T13:02:10.775Z,31.53
2018-08-18T13:04:39.905Z,30.62
2018-08-18T13:07:09.027Z,31.11
2018-08-18T13:09:38.218Z,30.50
2018-08-18T13:12:07.339Z,30.14
2018-08-18T13:14:36.516Z,30.25
2018-08-18T13:17:06.008Z,29.64
2018-08-18T13:19:35.647Z,29.26
2018-08-18T13:22:04.825Z,30.54
2018-08-18T13:24:33.946Z,30.25
2018-08-18T13:27:03.564Z,28.49
2018-08-18T13:29:33.679Z,28.71
2018-08-18T13:32:02.821Z,28.84
2018-08-18T13:34:31.919Z,28.82
2018-08-18T13:37:01.022Z,28.78
2018-08-18T13:39:30.174Z,28.09
2018-08-18T13:42:04.250Z,28.54
2018-08-18T13:44:36.010Z,27.98
2018-08-18T13:47:05.243Z,28.91
2018-08-18T13:49:34.405Z,28.23
2018-08-18T13:52:03.522Z,28.51
2018-08-18T13:54:34.196Z,29.04
2018-08-18T13:57:03.330Z,28.62
2018-08-18T13:59:40.632Z,29.16
2018-08-18T14:02:10.878Z,28.46
2018-08-18T14:04:41.888Z,28.99
2018-08-18T14:07:11.209Z,28.45
2018-08-18T14:09:45.041Z,28.85
2018-08-18T14:12:14.825Z,28.08
2018-08-18T14:14:44.389Z,29.10
2018-08-18T14:17:14.280Z,30.06
2018-08-18T14:19:43.548Z,29.64
2018-08-18T14:22:12.789Z,30.68
2018-08-18T14:24:42.338Z,28.76
2018-08-18T14:27:17.388Z,29.26
2018-08-18T14:29:46.544Z,28.86
2018-08-18T14:32:21.296Z,29.42
2018-08-18T14:34:56.606Z,29.11
2018-08-18T14:37:25.782Z,28.56
2018-08-18T14:39:54.923Z,29.35
2018-08-18T14:42:24.167Z,30.56
2018-08-18T14:44:56.209Z,30.73
2018-08-18T14:47:25.477Z,30.13
2018-08-18T14:50:12.744Z,30.49
2018-08-18T14:52:48.652Z,30.54
2018-08-18T14:55:18.063Z,30.20
2018-08-18T14:57:52.526Z,30.85
2018-08-18T15:00:21.656Z,31.17
2018-08-18T15:02:50.793Z,30.17
2018-08-18T15:05:19.988Z,31.09
2018-08-18T15:07:53.296Z,32.25
2018-08-18T15:10:36.128Z,33.27
2018-08-18T15:13:06.050Z,31.92
2018-08-18T15:15:35.856Z,31.66
2018-08-18T15:18:06.379Z,31.14
2018-08-18T15:20:37.562Z,31.94
2018-08-18T15:23:07.901Z,32.87
2018-08-18T15:25:38.012Z,31.66
2018-08-18T15:28:08.473Z,31.60
2018-08-18T15:30:38.946Z,31.09
2018-08-18T15:33:09.900Z,31.22
2018-08-18T15:35:40.159Z,30.56
2018-08-18T15:38:10.441Z,30.57
2018-08-18T15:40:39.750Z,31.20
2018-08-18T15:43:08.924Z,30.01
2018-08-18T15:45:55.143Z,30.28
2018-08-18T15:48:24.285Z,31.16
2018-08-18T15:50:53.375Z,31.11
2018-08-18T15:53:48.065Z,31.13
2018-08-18T15:56:17.905Z,31.07
2018-08-18T15:58:48.220Z,31.08
2018-08-18T16:01:17.590Z,31.13
2018-08-18T16:03:46.846Z,31.51
2018-08-18T16:06:16.016Z,31.38
2018-08-18T16:08:45.146Z,31.51
2018-08-18T16:11:14.532Z,31.26
2018-08-18T16:13:43.803Z,31.64
2018-08-18T16:16:13.032Z,32.06
2018-08-18T16:18:42.212Z,32.11
2018-08-18T16:21:27.693Z,31.47
2018-08-18T16:23:56.896Z,32.32
2018-08-18T16:26:26.081Z,32.39
2018-08-18T16:28:55.187Z,32.65
2018-08-18T16:31:24.351Z,32.32
2018-08-18T16:34:00.242Z,32.93
2018-08-18T16:36:34.624Z,33.06
2018-08-18T16:39:03.829Z,34.10
2018-08-18T16:41:32.974Z,33.08
2018-08-18T16:44:02.138Z,33.17
2018-08-18T16:46:31.980Z,33.04
2018-08-18T16:49:01.427Z,32.69
2018-08-18T16:54:23.161Z,33.31
2018-08-18T16:56:54.966Z,33.21
2018-08-18T16:59:24.671Z,33.59
2018-08-18T17:01:55.672Z,33.45
2018-08-18T17:04:32.103Z,34.25
2018-08-18T17:07:03.681Z,34.72
2018-08-18T17:09:40.300Z,35.18
2018-08-18T17:12:21.034Z,34.81
2018-08-18T17:14:50.242Z,35.04
2018-08-18T17:17:19.383Z,35.83
2018-08-18T17:19:49.319Z,35.49
2018-08-18T17:22:18.474Z,35.37
2018-08-18T17:24:47.666Z,35.02
2018-08-18T17:27:16.809Z,35.93
2018-08-18T17:29:50.892Z,35.91
2018-08-18T17:32:20.035Z,35.43
2018-08-18T17:34:49.208Z,36.72
2018-08-18T17:37:18.393Z,36.05
2018-08-18T17:39:47.534Z,36.73
2018-08-18T17:42:16.598Z,36.55
2018-08-18T17:44:45.781Z,36.51
2018-08-18T17:47:14.906Z,36.66
2018-08-18T17:49:49.376Z,37.64
2018-08-18T17:52:18.470Z,37.45
2018-08-18T17:55:05.009Z,36.90
2018-08-18T17:57:34.598Z,38.82
2018-08-18T18:00:09.480Z,39.61
2018-08-18T18:02:44.227Z,39.85
2018-08-18T18:05:13.325Z,41.09
2018-08-18T18:07:42.619Z,40.52
2018-08-18T18:10:11.734Z,41.07
2018-08-18T18:12:40.903Z,40.32
2018-08-18T18:15:27.426Z,40.97
2018-08-18T18:17:56.579Z,42.05
2018-08-18T18:20:28.650Z,42.42
2018-08-18T18:22:57.844Z,43.37
2018-08-18T18:25:26.965Z,43.90
2018-08-18T18:27:56.169Z,43.86
2018-08-18T18:30:27.205Z,43.96
2018-08-18T18:32:57.466Z,45.17
2018-08-18T18:35:27.007Z,45.57
2018-08-18T18:38:01.112Z,45.98
2018-08-18T18:40:34.872Z,46.01
2018-08-18T18:43:04.069Z,45.60
2018-08-18T18:45:33.327Z,43.33
2018-08-18T18:48:02.541Z,43.02
2018-08-18T18:50:31.660Z,42.44
2018-08-18T18:53:00.801Z,42.31
2018-08-18T18:55:30.200Z,42.15
2018-08-18T18:58:10.476Z,43.12
2018-08-18T19:00:40.835Z,42.40
2018-08-18T19:03:10.807Z,43.49
2018-08-18T19:05:39.947Z,41.29
2018-08-18T19:08:15.604Z,41.31
2018-08-18T19:10:44.755Z,42.94
2018-08-18T19:13:14.038Z,42.05
2018-08-18T19:15:43.260Z,42.61
2018-08-18T19:18:13.129Z,42.46
2018-08-18T19:20:42.304Z,43.69
2018-08-18T19:23:15.588Z,43.44
2018-08-18T19:25:45.999Z,44.72
2018-08-18T19:28:20.422Z,45.07
2018-08-18T19:30:49.494Z,45.87
2018-08-18T19:33:19.182Z,46.20
2018-08-18T19:35:50.152Z,46.23
2018-08-18T19:38:20.407Z,46.29
2018-08-18T19:40:52.501Z,46.46
2018-08-18T19:43:22.928Z,46.76
2018-08-18T19:45:52.584Z,46.85
2018-08-18T19:48:23.126Z,47.27
2018-08-18T19:50:58.055Z,47.72
2018-08-18T19:53:30.382Z,47.64
2018-08-18T19:56:00.456Z,48.19
2018-08-18T19:58:30.295Z,48.30
2018-08-18T20:00:59.391Z,48.85
2018-08-18T20:03:28.516Z,49.34
2018-08-18T20:05:57.600Z,49.14
2018-08-18T20:08:27.875Z,49.28
2018-08-18T20:11:00.368Z,49.23
2018-08-18T20:13:30.862Z,49.12
2018-08-18T20:16:01.979Z,48.45
2018-08-18T20:18:32.444Z,48.96
2018-08-18T20:21:01.509Z,48.63
2018-08-18T20:23:30.682Z,48.54
2018-08-18T20:26:01.222Z,48.97
2018-08-18T20:28:30.334Z,48.89
2018-08-18T20:30:59.455Z,49.12
2018-08-18T20:33:28.568Z,48.96
2018-08-18T20:35:57.704Z,49.19
2018-08-18T20:38:30.980Z,48.44
2018-08-18T20:41:00.111Z,48.45
2018-08-18T20:43:29.302Z,48.24
2018-08-18T20:45:58.424Z,48.36
2018-08-18T20:48:27.680Z,48.76
2018-08-18T20:50:56.759Z,49.00
2018-08-18T20:53:27.353Z,49.27
2018-08-18T20:55:58.718Z,49.34
2018-08-18T20:58:28.323Z,49.18
2018-08-18T21:00:57.408Z,48.66
2018-08-18T21:03:40.837Z,48.82
2018-08-18T21:06:09.979Z,49.10
2018-08-18T21:08:39.083Z,49.49
2018-08-18T21:11:08.308Z,48.67
2018-08-18T21:13:38.097Z,49.10
2018-08-18T21:16:07.214Z,49.14
2018-08-18T21:18:36.357Z,49.52
2018-08-18T21:21:31.223Z,49.43
2018-08-18T21:24:00.386Z,50.81
2018-08-18T21:26:29.571Z,50.85
2018-08-18T21:28:58.975Z,51.12
2018-08-18T21:31:33.020Z,50.92
2018-08-18T21:34:03.273Z,51.43
2018-08-18T21:36:33.102Z,51.17
2018-08-18T21:39:06.607Z,50.89
2018-08-18T21:41:39.332Z,51.67
2018-08-18T21:44:11.451Z,51.61
2018-08-18T21:46:41.070Z,51.54
2018-08-18T21:49:11.011Z,51.57
2018-08-18T21:51:40.130Z,51.51
2018-08-18T21:54:09.304Z,51.95
2018-08-18T21:56:39.761Z,52.14
2018-08-18T21:59:10.616Z,52.89
2018-08-18T22:01:39.788Z,52.92
2018-08-18T22:04:09.630Z,53.33
2018-08-18T22:06:38.916Z,53.44
2018-08-18T22:09:22.541Z,53.07
2018-08-18T22:11:51.796Z,52.99
2018-08-18T22:14:20.913Z,52.47
2018-08-18T22:16:55.499Z,52.05
2018-08-18T22:19:24.830Z,52.30
2018-08-18T22:21:54.115Z,52.53
2018-08-18T22:24:23.222Z,52.41
2018-08-18T22:26:52.309Z,52.04
2018-08-18T22:29:26.106Z,52.31
2018-08-18T22:31:55.235Z,52.43
2018-08-18T22:34:24.397Z,52.81
2018-08-18T22:37:03.154Z,53.41
2018-08-18T22:39:32.358Z,53.51
2018-08-18T22:42:01.484Z,52.94
2018-08-18T22:44:30.674Z,52.88
2018-08-18T22:47:01.077Z,53.51
2018-08-18T22:49:30.231Z,53.46
2018-08-18T22:51:59.385Z,53.08
2018-08-18T22:54:28.524Z,54.75
2018-08-18T22:57:02.887Z,54.51
2018-08-18T22:59:32.403Z,55.21
2018-08-18T23:02:01.929Z,55.10
2018-08-18T23:04:35.945Z,54.73
2018-08-18T23:07:06.162Z,54.73
2018-08-18T23:09:35.297Z,54.64
2018-08-18T23:12:06.674Z,54.53
2018-08-18T23:14:36.879Z,54.53
2018-08-18T23:17:07.781Z,54.48
2018-08-18T23:19:36.986Z,54.50
2018-08-18T23:22:06.121Z,55.07
2018-08-18T23:24:39.088Z,54.43
2018-08-18T23:27:08.186Z,55.13
2018-08-18T23:29:37.307Z,55.72
2018-08-18T23:32:15.039Z,55.76
2018-08-18T23:34:44.142Z,55.03
2018-08-18T23:37:17.378Z,55.05
2018-08-18T23:39:46.540Z,54.53
2018-08-18T23:42:20.583Z,54.52
2018-08-18T23:44:49.780Z,54.26
2018-08-18T23:47:19.349Z,53.46
2018-08-18T23:49:48.758Z,52.38
2018-08-18T23:52:17.928Z,51.90
2018-08-18T23:54:47.128Z,52.51
2018-08-18T23:57:17.460Z,52.19
2018-08-18T23:59:47.129Z,52.94
